Meteo Giornale » Osservazioni meteo Italia » Mondovi

ore: 02:55 - Osservazioni Meteo Mondovi
Lat. 44° 23' N Lon. 7° 49' E Alt. 560 metri s.l.m.

sereno Europe/Rome

0 °C

Sereno

Temp. 24 Ore

0 °C

20 °C

Nord

0 Km/h

Dew point 0 °C

Umidità 93 %

Visibilità  0 Km

Il sole sorge alle ore 05:43

Il sole tramonta alle ore 21:18

Data e Ora Cielo e Fenomeni T °C DP °C Um. % Pres. hPa Vis. km Vento km/h
Oggi h: 02:55 sereno Sereno 0 0 93 0 0 N 0
Oggi h: 01:55 sereno Sereno 0 0 93 0 0 N 0
Oggi h: 00:55 sereno Sereno 0 0 93 0 0 N 0
Ieri h: 23:55 sereno Sereno 0 0 82 0 0 N 0
Ieri h: 22:55 sereno Sereno 0 0 83 0 0 N 0
Ieri h: 21:55 sereno Sereno 0 0 88 0 0 N 0
Ieri h: 20:55 sereno Sereno 0 0 82 0 0 N 0
Ieri h: 19:55 sereno Sereno 0 0 100 0 0 N 0
Ieri h: 18:55 sereno Sereno 0 0 100 0 0 N 0
Ieri h: 17:55 sereno Sereno 0 0 100 0 0 N 0
Ieri h: 16:55 sereno Sereno 0 0 69 0 0 O 3.7
Ieri h: 15:55 sereno Sereno 0 0 73 0 0 O 7.4
Ieri h: 14:55 sereno Sereno 0 0 64 0 0 O 3.7
Ieri h: 13:55 sereno Sereno 20 17 82 1017 0 N 3.7
Ieri h: 12:55 sereno Sereno 20 0 26 0 0 E 7.4
Ieri h: 11:55 sereno Sereno 20 17 82 1018 0 N 5.5
Ieri h: 10:55 sereno Sereno 19 17 88 1018 0 O/SO 14.8
Ieri h: 09:55 sereno Sereno 19 16 82 1019 0 O 7.4
Ieri h: 08:55 sereno Sereno 18 16 88 1018 0 N 5.5
Ieri h: 07:55 sereno Sereno 18 16 88 1019 0 S/SO 7.4
Ieri h: 06:55 sereno Sereno 0 0 82 0 0 N 0
Ieri h: 05:55 sereno Sereno 0 0 94 0 0 N 0
Ieri h: 04:55 sereno Sereno 0 0 88 0 0 N 0